JBU1334 TJSJ-KMCO
Flight info
| Callsign | JBU1334 |
|---|---|
| Flight time | 2h 39m |
| Altitude | 34000 |
| Route | ACONY3 SAPPO Y280 OCTAL MUNGI1 |
| Aircraft | A321/M-SDE3FGHIRWY/LB1 |
Departure
| Time | 2026-05-04 13:32 |
|---|---|
| Airport | Luis Munoz Marin International Airport (TJSJ) |
Arrival
| Time | 2026-05-04 16:12 |
|---|---|
| Airport | Orlando International Airport (KMCO) |
| Time | Latitude | Longitude | Altitude | Speed | Heading |
|---|---|---|---|---|---|
| 2026-05-04 13:14 | 18.43609 | -66.00333 | 26 ft | 0 kts | 343° |
| 2026-05-04 13:20 | 18.43598 | -66.00330 | 17 ft | 3 kts | 343° |
| 2026-05-04 13:21 | 18.43580 | -66.00324 | 19 ft | 3 kts | 343° |
| 2026-05-04 13:21 | 18.43562 | -66.00318 | 19 ft | 3 kts | 325° |
| 2026-05-04 13:21 | 18.43548 | -66.00304 | 21 ft | 3 kts | 295° |
| 2026-05-04 13:21 | 18.43543 | -66.00284 | 18 ft | 3 kts | 265° |
| 2026-05-04 13:22 | 18.43545 | -66.00267 | 20 ft | 1 kts | 261° |
| 2026-05-04 13:22 | 18.43545 | -66.00266 | 20 ft | 0 kts | 261° |
| 2026-05-04 13:26 | 18.43545 | -66.00267 | 17 ft | 0 kts | 261° |
| 2026-05-04 13:26 | 18.43538 | -66.00282 | 18 ft | 5 kts | 237° |
| 2026-05-04 13:26 | 18.43500 | -66.00320 | 17 ft | 9 kts | 221° |
| 2026-05-04 13:26 | 18.43465 | -66.00374 | 17 ft | 10 kts | 264° |
| 2026-05-04 13:27 | 18.43465 | -66.00453 | 17 ft | 12 kts | 270° |
| 2026-05-04 13:27 | 18.43465 | -66.00541 | 17 ft | 12 kts | 270° |
| 2026-05-04 13:27 | 18.43465 | -66.00601 | 17 ft | 13 kts | 270° |
| 2026-05-04 13:27 | 18.43465 | -66.00695 | 17 ft | 13 kts | 270° |
| 2026-05-04 13:28 | 18.43466 | -66.00794 | 17 ft | 14 kts | 270° |
| 2026-05-04 13:28 | 18.43466 | -66.00896 | 17 ft | 14 kts | 270° |
| 2026-05-04 13:28 | 18.43466 | -66.01002 | 17 ft | 15 kts | 270° |
| 2026-05-04 13:28 | 18.43466 | -66.01111 | 17 ft | 15 kts | 270° |
| 2026-05-04 13:29 | 18.43467 | -66.01224 | 17 ft | 16 kts | 270° |
| 2026-05-04 13:29 | 18.43467 | -66.01341 | 17 ft | 16 kts | 270° |
| 2026-05-04 13:29 | 18.43488 | -66.01430 | 18 ft | 11 kts | 324° |
| 2026-05-04 13:29 | 18.43565 | -66.01437 | 19 ft | 12 kts | 360° |
| 2026-05-04 13:30 | 18.43648 | -66.01437 | 18 ft | 12 kts | 360° |
| 2026-05-04 13:30 | 18.43733 | -66.01439 | 17 ft | 12 kts | 347° |
| 2026-05-04 13:30 | 18.43755 | -66.01507 | 17 ft | 9 kts | 272° |
| 2026-05-04 13:30 | 18.43796 | -66.01559 | 19 ft | 10 kts | 325° |
| 2026-05-04 13:31 | 18.43844 | -66.01564 | 17 ft | 5 kts | 49° |
| 2026-05-04 13:31 | 18.43852 | -66.01545 | 17 ft | 0 kts | 67° |
| 2026-05-04 13:31 | 18.43853 | -66.01543 | 17 ft | 2 kts | 67° |
| 2026-05-04 13:31 | 18.43908 | -66.01407 | 19 ft | 52 kts | 67° |
| 2026-05-04 13:32 | 18.44140 | -66.00837 | 20 ft | 115 kts | 67° |
| 2026-05-04 13:32 | 18.44523 | -65.99892 | 22 ft | 163 kts | 66° |
| 2026-05-04 13:32 | 18.44997 | -65.98760 | 489 ft | 168 kts | 70° |
| 2026-05-04 13:32 | 18.45726 | -65.97784 | 1098 ft | 180 kts | 35° |
| 2026-05-04 13:33 | 18.46978 | -65.97522 | 1753 ft | 195 kts | 356° |
| 2026-05-04 13:33 | 18.48342 | -65.97979 | 1920 ft | 219 kts | 339° |
| 2026-05-04 13:33 | 18.49798 | -65.98687 | 2055 ft | 242 kts | 336° |
| 2026-05-04 13:33 | 18.51396 | -65.99485 | 2192 ft | 267 kts | 336° |
| 2026-05-04 13:34 | 18.53120 | -66.00362 | 2660 ft | 279 kts | 336° |
| 2026-05-04 13:34 | 18.54885 | -66.01264 | 3315 ft | 283 kts | 336° |
| 2026-05-04 13:34 | 18.56665 | -66.02169 | 4015 ft | 285 kts | 336° |
| 2026-05-04 13:34 | 18.58382 | -66.03240 | 4691 ft | 291 kts | 321° |
| 2026-05-04 13:35 | 18.59767 | -66.04820 | 5357 ft | 295 kts | 312° |
| 2026-05-04 13:35 | 18.62429 | -66.08148 | 6709 ft | 299 kts | 311° |
| 2026-05-04 13:35 | 18.63765 | -66.09834 | 7324 ft | 301 kts | 311° |
| 2026-05-04 13:36 | 18.65109 | -66.11529 | 7942 ft | 302 kts | 311° |
| 2026-05-04 13:36 | 18.66461 | -66.13232 | 8579 ft | 303 kts | 311° |
| 2026-05-04 13:36 | 18.67819 | -66.14943 | 9192 ft | 305 kts | 310° |
| 2026-05-04 13:36 | 18.69185 | -66.16662 | 9835 ft | 306 kts | 310° |
| 2026-05-04 13:37 | 18.70556 | -66.18385 | 10329 ft | 312 kts | 310° |
| 2026-05-04 13:37 | 18.71985 | -66.20183 | 10521 ft | 328 kts | 310° |
| 2026-05-04 13:37 | 18.73485 | -66.22073 | 10705 ft | 344 kts | 310° |
| 2026-05-04 13:37 | 18.75052 | -66.24046 | 10891 ft | 358 kts | 310° |
| 2026-05-04 13:38 | 18.76686 | -66.26099 | 11070 ft | 372 kts | 309° |
| 2026-05-04 13:38 | 18.78368 | -66.28214 | 11398 ft | 380 kts | 309° |
| 2026-05-04 13:38 | 18.80052 | -66.30331 | 11857 ft | 383 kts | 309° |
| 2026-05-04 13:38 | 18.81770 | -66.32491 | 12361 ft | 386 kts | 309° |
| 2026-05-04 13:39 | 18.83498 | -66.34668 | 12867 ft | 388 kts | 309° |
| 2026-05-04 13:39 | 18.85235 | -66.36856 | 13357 ft | 390 kts | 308° |
| 2026-05-04 13:39 | 18.86984 | -66.39062 | 13849 ft | 393 kts | 308° |
| 2026-05-04 13:39 | 18.88741 | -66.41279 | 14300 ft | 394 kts | 308° |
| 2026-05-04 13:40 | 18.90505 | -66.43503 | 14764 ft | 396 kts | 308° |
| 2026-05-04 13:40 | 18.92274 | -66.45731 | 15242 ft | 397 kts | 308° |
| 2026-05-04 13:40 | 18.94050 | -66.47971 | 15729 ft | 398 kts | 308° |
| 2026-05-04 13:40 | 18.95827 | -66.50215 | 16213 ft | 399 kts | 308° |
| 2026-05-04 13:41 | 18.97612 | -66.52471 | 16687 ft | 401 kts | 307° |
| 2026-05-04 13:41 | 18.99403 | -66.54739 | 17158 ft | 403 kts | 307° |
| 2026-05-04 13:41 | 19.01204 | -66.57013 | 17632 ft | 404 kts | 307° |
| 2026-05-04 13:42 | 19.04833 | -66.61587 | 18580 ft | 407 kts | 307° |
| 2026-05-04 13:42 | 19.06656 | -66.63891 | 18966 ft | 410 kts | 307° |
| 2026-05-04 13:42 | 19.08487 | -66.66212 | 19325 ft | 413 kts | 307° |
| 2026-05-04 13:42 | 19.10329 | -66.68552 | 19667 ft | 416 kts | 307° |
| 2026-05-04 13:43 | 19.12184 | -66.70910 | 19997 ft | 419 kts | 307° |
| 2026-05-04 13:43 | 19.14055 | -66.73283 | 20327 ft | 422 kts | 308° |
| 2026-05-04 13:43 | 19.15943 | -66.75672 | 20657 ft | 424 kts | 308° |
| 2026-05-04 13:43 | 19.17839 | -66.78074 | 20970 ft | 427 kts | 308° |
| 2026-05-04 13:44 | 19.19747 | -66.80493 | 21286 ft | 429 kts | 308° |
| 2026-05-04 13:44 | 19.21665 | -66.82925 | 21585 ft | 432 kts | 308° |
| 2026-05-04 13:44 | 19.23595 | -66.85376 | 21887 ft | 435 kts | 308° |
| 2026-05-04 13:44 | 19.25534 | -66.87844 | 22173 ft | 437 kts | 308° |
| 2026-05-04 13:45 | 19.27486 | -66.90332 | 22448 ft | 440 kts | 308° |
| 2026-05-04 13:45 | 19.29448 | -66.92829 | 22713 ft | 443 kts | 308° |
| 2026-05-04 13:45 | 19.31428 | -66.95347 | 22981 ft | 446 kts | 308° |
| 2026-05-04 13:45 | 19.33420 | -66.97879 | 23243 ft | 449 kts | 309° |
| 2026-05-04 13:46 | 19.35422 | -67.00428 | 23510 ft | 451 kts | 309° |
| 2026-05-04 13:46 | 19.37434 | -67.02990 | 23754 ft | 454 kts | 309° |
| 2026-05-04 13:46 | 19.39455 | -67.05564 | 23993 ft | 455 kts | 309° |
| 2026-05-04 13:46 | 19.41483 | -67.08145 | 24278 ft | 456 kts | 309° |
| 2026-05-04 13:47 | 19.43507 | -67.10727 | 24576 ft | 456 kts | 309° |
| 2026-05-04 13:47 | 19.45534 | -67.13312 | 24868 ft | 456 kts | 309° |
| 2026-05-04 13:47 | 19.47561 | -67.15899 | 25167 ft | 456 kts | 308° |
| 2026-05-04 13:47 | 19.49584 | -67.18483 | 25466 ft | 456 kts | 308° |
| 2026-05-04 13:48 | 19.51611 | -67.21071 | 25744 ft | 456 kts | 308° |
| 2026-05-04 13:48 | 19.53640 | -67.23660 | 26013 ft | 457 kts | 308° |
| 2026-05-04 13:48 | 19.55671 | -67.26253 | 26269 ft | 457 kts | 308° |
| 2026-05-04 13:48 | 19.57703 | -67.28849 | 26521 ft | 458 kts | 308° |
| 2026-05-04 13:49 | 19.59739 | -67.31454 | 26765 ft | 459 kts | 308° |
| 2026-05-04 13:49 | 19.61752 | -67.34033 | 27007 ft | 460 kts | 308° |
| 2026-05-04 13:49 | 19.63823 | -67.36688 | 27260 ft | 461 kts | 308° |
| 2026-05-04 13:49 | 19.65869 | -67.39313 | 27516 ft | 463 kts | 308° |
| 2026-05-04 13:50 | 19.67895 | -67.41913 | 27769 ft | 464 kts | 308° |
| 2026-05-04 13:50 | 19.69952 | -67.44554 | 27998 ft | 465 kts | 308° |
| 2026-05-04 13:50 | 19.72044 | -67.47237 | 28243 ft | 466 kts | 308° |
| 2026-05-04 13:50 | 19.74076 | -67.49842 | 28578 ft | 464 kts | 308° |
| 2026-05-04 13:51 | 19.76129 | -67.52474 | 28940 ft | 462 kts | 308° |
| 2026-05-04 13:51 | 19.78175 | -67.55098 | 29298 ft | 460 kts | 308° |
| 2026-05-04 13:51 | 19.80210 | -67.57710 | 29659 ft | 458 kts | 308° |
| 2026-05-04 13:51 | 19.82235 | -67.60316 | 30016 ft | 456 kts | 308° |
| 2026-05-04 13:52 | 19.86258 | -67.65498 | 30601 ft | 454 kts | 308° |
| 2026-05-04 13:52 | 19.88269 | -67.68087 | 30840 ft | 454 kts | 308° |
| 2026-05-04 13:52 | 19.90273 | -67.70676 | 31072 ft | 454 kts | 308° |
| 2026-05-04 13:53 | 19.92281 | -67.73266 | 31302 ft | 454 kts | 308° |
| 2026-05-04 13:53 | 19.94292 | -67.75856 | 31531 ft | 454 kts | 308° |
| 2026-05-04 13:53 | 19.96329 | -67.78477 | 31758 ft | 454 kts | 308° |
| 2026-05-04 13:54 | 20.00349 | -67.83667 | 32215 ft | 455 kts | 308° |
| 2026-05-04 13:54 | 20.02357 | -67.86264 | 32443 ft | 455 kts | 308° |
| 2026-05-04 13:54 | 20.06373 | -67.91462 | 32882 ft | 455 kts | 308° |
| 2026-05-04 13:55 | 20.08357 | -67.94030 | 33096 ft | 455 kts | 308° |
| 2026-05-04 13:55 | 20.12383 | -67.99230 | 33534 ft | 455 kts | 308° |
| 2026-05-04 13:55 | 20.14396 | -68.01831 | 33755 ft | 455 kts | 307° |
| 2026-05-04 13:56 | 20.16408 | -68.04437 | 33976 ft | 455 kts | 307° |
| 2026-05-04 13:56 | 20.18418 | -68.07045 | 34069 ft | 456 kts | 307° |
| 2026-05-04 13:57 | 20.24453 | -68.14877 | 34082 ft | 456 kts | 307° |
| 2026-05-04 13:58 | 20.32483 | -68.25314 | 34085 ft | 455 kts | 307° |
| 2026-05-04 13:58 | 20.38509 | -68.33142 | 34089 ft | 456 kts | 307° |
| 2026-05-04 13:59 | 20.42521 | -68.38370 | 34092 ft | 456 kts | 307° |
| 2026-05-04 14:00 | 20.47758 | -68.46777 | 34099 ft | 454 kts | 300° |
| 2026-05-04 14:00 | 20.52793 | -68.55333 | 34102 ft | 454 kts | 300° |
| 2026-05-04 14:01 | 20.56148 | -68.61036 | 34103 ft | 454 kts | 300° |
| 2026-05-04 14:02 | 20.61171 | -68.69599 | 34109 ft | 454 kts | 300° |
| 2026-05-04 14:02 | 20.64524 | -68.75305 | 34097 ft | 454 kts | 300° |
| 2026-05-04 14:03 | 20.67867 | -68.81016 | 34106 ft | 453 kts | 300° |
| 2026-05-04 14:03 | 20.71205 | -68.86726 | 34102 ft | 453 kts | 299° |
| 2026-05-04 14:04 | 20.76211 | -68.95293 | 34107 ft | 453 kts | 299° |
| 2026-05-04 14:04 | 20.79541 | -69.01006 | 34102 ft | 453 kts | 299° |
| 2026-05-04 14:05 | 20.84536 | -69.09566 | 34109 ft | 452 kts | 299° |
| 2026-05-04 14:06 | 20.87855 | -69.15275 | 34103 ft | 452 kts | 299° |
| 2026-05-04 14:06 | 20.91169 | -69.20982 | 34096 ft | 451 kts | 299° |
| 2026-05-04 14:07 | 20.94485 | -69.26682 | 34101 ft | 451 kts | 299° |
| 2026-05-04 14:07 | 20.97799 | -69.32377 | 34096 ft | 451 kts | 299° |
| 2026-05-04 14:08 | 21.01103 | -69.38072 | 34100 ft | 450 kts | 299° |
| 2026-05-04 14:08 | 21.04395 | -69.43767 | 34107 ft | 450 kts | 299° |
| 2026-05-04 14:09 | 21.09304 | -69.52259 | 34107 ft | 449 kts | 299° |
| 2026-05-04 14:10 | 21.14226 | -69.60776 | 34103 ft | 448 kts | 299° |
| 2026-05-04 14:10 | 21.17526 | -69.66489 | 34100 ft | 447 kts | 299° |
| 2026-05-04 14:11 | 21.20770 | -69.72119 | 34093 ft | 447 kts | 299° |
| 2026-05-04 14:11 | 21.25656 | -69.80628 | 34099 ft | 446 kts | 298° |
| 2026-05-04 14:12 | 21.28912 | -69.86294 | 34097 ft | 446 kts | 299° |
| 2026-05-04 14:13 | 21.33791 | -69.94785 | 34096 ft | 445 kts | 298° |
| 2026-05-04 14:13 | 21.36508 | -69.99523 | 34100 ft | 445 kts | 298° |
| 2026-05-04 14:14 | 21.39748 | -70.05180 | 34097 ft | 445 kts | 298° |
| 2026-05-04 14:14 | 21.44596 | -70.13661 | 34095 ft | 444 kts | 298° |
| 2026-05-04 14:15 | 21.51043 | -70.24953 | 34094 ft | 443 kts | 298° |
| 2026-05-04 14:16 | 21.55863 | -70.33413 | 34096 ft | 442 kts | 298° |
| 2026-05-04 14:17 | 21.60672 | -70.41865 | 34093 ft | 442 kts | 298° |
| 2026-05-04 14:18 | 21.65469 | -70.50314 | 34091 ft | 441 kts | 298° |
| 2026-05-04 14:19 | 21.71864 | -70.61571 | 34090 ft | 441 kts | 298° |
| 2026-05-04 14:19 | 21.75030 | -70.67161 | 34093 ft | 440 kts | 298° |
| 2026-05-04 14:20 | 21.78208 | -70.72793 | 34093 ft | 440 kts | 298° |
| 2026-05-04 14:20 | 21.81387 | -70.78422 | 34091 ft | 440 kts | 298° |
| 2026-05-04 14:21 | 21.86155 | -70.86859 | 34090 ft | 439 kts | 298° |
| 2026-05-04 14:21 | 21.89319 | -70.92483 | 34088 ft | 439 kts | 298° |
| 2026-05-04 14:22 | 21.92477 | -70.98104 | 34088 ft | 438 kts | 298° |
| 2026-05-04 14:22 | 21.95633 | -71.03722 | 34086 ft | 438 kts | 298° |
| 2026-05-04 14:23 | 22.00375 | -71.12138 | 34083 ft | 438 kts | 298° |
| 2026-05-04 14:24 | 22.03529 | -71.17755 | 34088 ft | 438 kts | 298° |
| 2026-05-04 14:24 | 22.06675 | -71.23374 | 34091 ft | 438 kts | 297° |
| 2026-05-04 14:25 | 22.09812 | -71.28990 | 34089 ft | 437 kts | 297° |
| 2026-05-04 14:25 | 22.14509 | -71.37402 | 34098 ft | 436 kts | 297° |
| 2026-05-04 14:26 | 22.17636 | -71.42998 | 34093 ft | 435 kts | 297° |
| 2026-05-04 14:26 | 22.20756 | -71.48595 | 34084 ft | 435 kts | 297° |
| 2026-05-04 14:27 | 22.23873 | -71.54187 | 34090 ft | 435 kts | 297° |
| 2026-05-04 14:27 | 22.26986 | -71.59782 | 34089 ft | 434 kts | 297° |
| 2026-05-04 14:28 | 22.30096 | -71.65380 | 34087 ft | 435 kts | 297° |
| 2026-05-04 14:28 | 22.33205 | -71.70973 | 34084 ft | 434 kts | 297° |
| 2026-05-04 14:29 | 22.39410 | -71.82164 | 34081 ft | 434 kts | 297° |
| 2026-05-04 14:30 | 22.42513 | -71.87758 | 34083 ft | 434 kts | 297° |
| 2026-05-04 14:31 | 22.47151 | -71.96153 | 34089 ft | 434 kts | 297° |
| 2026-05-04 14:32 | 22.53324 | -72.07349 | 34077 ft | 433 kts | 297° |
| 2026-05-04 14:32 | 22.56403 | -72.12951 | 34078 ft | 433 kts | 297° |
| 2026-05-04 14:33 | 22.59486 | -72.18549 | 34079 ft | 433 kts | 297° |
| 2026-05-04 14:33 | 22.62565 | -72.24148 | 34081 ft | 433 kts | 297° |
| 2026-05-04 14:34 | 22.65642 | -72.29749 | 34083 ft | 433 kts | 297° |
| 2026-05-04 14:34 | 22.68717 | -72.35350 | 34085 ft | 433 kts | 297° |
| 2026-05-04 14:35 | 22.71787 | -72.40953 | 34085 ft | 433 kts | 296° |
| 2026-05-04 14:35 | 22.74859 | -72.46567 | 34082 ft | 433 kts | 296° |
| 2026-05-04 14:36 | 22.77925 | -72.52179 | 34081 ft | 433 kts | 296° |
| 2026-05-04 14:36 | 22.80994 | -72.57790 | 34085 ft | 433 kts | 296° |
| 2026-05-04 14:37 | 22.84058 | -72.63402 | 34087 ft | 433 kts | 296° |
| 2026-05-04 14:37 | 22.87117 | -72.69018 | 34086 ft | 432 kts | 296° |
| 2026-05-04 14:38 | 22.90180 | -72.74633 | 34089 ft | 432 kts | 296° |
| 2026-05-04 14:38 | 22.93235 | -72.80251 | 34092 ft | 432 kts | 296° |
| 2026-05-04 14:39 | 22.96284 | -72.85865 | 34093 ft | 432 kts | 296° |
| 2026-05-04 14:39 | 22.99326 | -72.91480 | 34091 ft | 431 kts | 296° |
| 2026-05-04 14:40 | 23.03879 | -72.99885 | 34093 ft | 430 kts | 296° |
| 2026-05-04 14:40 | 23.06901 | -73.05471 | 34091 ft | 429 kts | 296° |
| 2026-05-04 14:41 | 23.09914 | -73.11049 | 34097 ft | 428 kts | 296° |
| 2026-05-04 14:42 | 23.15900 | -73.22156 | 34093 ft | 427 kts | 296° |
| 2026-05-04 14:42 | 23.18895 | -73.27714 | 34096 ft | 426 kts | 296° |
| 2026-05-04 14:43 | 23.21889 | -73.33268 | 34096 ft | 425 kts | 296° |
| 2026-05-04 14:43 | 23.24875 | -73.38816 | 34096 ft | 425 kts | 295° |
| 2026-05-04 14:44 | 23.27842 | -73.44358 | 34097 ft | 424 kts | 295° |
| 2026-05-04 14:44 | 23.30806 | -73.49889 | 34089 ft | 423 kts | 295° |
| 2026-05-04 14:45 | 23.33769 | -73.55417 | 34093 ft | 423 kts | 295° |
| 2026-05-04 14:45 | 23.36721 | -73.60943 | 34089 ft | 422 kts | 295° |
| 2026-05-04 14:46 | 23.39673 | -73.66466 | 34088 ft | 422 kts | 295° |
| 2026-05-04 14:46 | 23.42625 | -73.71982 | 34090 ft | 422 kts | 295° |
| 2026-05-04 14:47 | 23.45570 | -73.77502 | 34089 ft | 421 kts | 295° |
| 2026-05-04 14:47 | 23.48507 | -73.83020 | 34088 ft | 421 kts | 295° |
| 2026-05-04 14:48 | 23.51442 | -73.88533 | 34085 ft | 421 kts | 295° |
| 2026-05-04 14:48 | 23.54374 | -73.94047 | 34089 ft | 420 kts | 295° |
| 2026-05-04 14:49 | 23.57298 | -73.99557 | 34090 ft | 420 kts | 295° |
| 2026-05-04 14:49 | 23.60218 | -74.05069 | 34089 ft | 419 kts | 295° |
| 2026-05-04 14:50 | 23.63135 | -74.10572 | 34090 ft | 419 kts | 295° |
| 2026-05-04 14:50 | 23.66045 | -74.16080 | 34090 ft | 419 kts | 295° |
| 2026-05-04 14:51 | 23.68956 | -74.21577 | 34089 ft | 418 kts | 295° |
| 2026-05-04 14:51 | 23.71855 | -74.27079 | 34092 ft | 418 kts | 294° |
| 2026-05-04 14:52 | 23.74753 | -74.32568 | 34092 ft | 417 kts | 294° |
| 2026-05-04 14:52 | 23.77642 | -74.38058 | 34094 ft | 417 kts | 294° |
| 2026-05-04 14:53 | 23.80528 | -74.43539 | 34098 ft | 416 kts | 294° |
| 2026-05-04 14:53 | 23.83406 | -74.49018 | 34096 ft | 415 kts | 294° |
| 2026-05-04 14:54 | 23.86279 | -74.54485 | 34100 ft | 415 kts | 294° |
| 2026-05-04 14:54 | 23.89152 | -74.59948 | 34104 ft | 414 kts | 294° |
| 2026-05-04 14:55 | 23.92009 | -74.65412 | 34103 ft | 414 kts | 294° |
| 2026-05-04 14:55 | 23.94854 | -74.70872 | 34102 ft | 413 kts | 294° |
| 2026-05-04 14:56 | 23.97223 | -74.75407 | 34097 ft | 413 kts | 294° |
| 2026-05-04 14:56 | 24.00074 | -74.80856 | 34089 ft | 413 kts | 294° |
| 2026-05-04 14:57 | 24.02926 | -74.86310 | 34083 ft | 413 kts | 294° |
| 2026-05-04 14:57 | 24.05768 | -74.91770 | 34081 ft | 413 kts | 294° |
| 2026-05-04 14:58 | 24.08605 | -74.97236 | 34078 ft | 413 kts | 294° |
| 2026-05-04 14:58 | 24.11450 | -75.02707 | 34077 ft | 413 kts | 294° |
| 2026-05-04 14:59 | 24.14294 | -75.08173 | 34078 ft | 413 kts | 294° |
| 2026-05-04 15:00 | 24.18552 | -75.16389 | 34072 ft | 414 kts | 294° |
| 2026-05-04 15:00 | 24.21394 | -75.21871 | 34073 ft | 414 kts | 294° |
| 2026-05-04 15:01 | 24.25648 | -75.30120 | 34066 ft | 415 kts | 294° |
| 2026-05-04 15:01 | 24.28495 | -75.35632 | 34075 ft | 416 kts | 294° |
| 2026-05-04 15:02 | 24.31347 | -75.41149 | 34068 ft | 416 kts | 294° |
| 2026-05-04 15:02 | 24.34194 | -75.46676 | 34061 ft | 417 kts | 294° |
| 2026-05-04 15:03 | 24.37042 | -75.52220 | 34065 ft | 417 kts | 294° |
| 2026-05-04 15:03 | 24.39901 | -75.57767 | 34067 ft | 418 kts | 294° |
| 2026-05-04 15:04 | 24.42751 | -75.63328 | 34071 ft | 419 kts | 294° |
| 2026-05-04 15:04 | 24.45586 | -75.68867 | 34073 ft | 419 kts | 294° |
| 2026-05-04 15:05 | 24.48440 | -75.74447 | 34069 ft | 420 kts | 294° |
| 2026-05-04 15:05 | 24.51304 | -75.80036 | 34073 ft | 420 kts | 294° |
| 2026-05-04 15:06 | 24.54166 | -75.85628 | 34072 ft | 420 kts | 294° |
| 2026-05-04 15:07 | 24.58448 | -75.94038 | 34067 ft | 421 kts | 294° |
| 2026-05-04 15:07 | 24.61306 | -75.99645 | 34071 ft | 421 kts | 294° |
| 2026-05-04 15:08 | 24.64163 | -76.05254 | 34072 ft | 420 kts | 294° |
| 2026-05-04 15:08 | 24.67011 | -76.10863 | 34070 ft | 420 kts | 294° |
| 2026-05-04 15:09 | 24.69854 | -76.16470 | 34071 ft | 420 kts | 294° |
| 2026-05-04 15:09 | 24.72697 | -76.22075 | 34069 ft | 419 kts | 294° |
| 2026-05-04 15:10 | 24.76947 | -76.30484 | 34071 ft | 419 kts | 294° |
| 2026-05-04 15:11 | 24.81188 | -76.38875 | 34066 ft | 418 kts | 294° |
| 2026-05-04 15:11 | 24.84016 | -76.44466 | 34070 ft | 418 kts | 294° |
| 2026-05-04 15:12 | 24.86830 | -76.50052 | 34071 ft | 417 kts | 294° |
| 2026-05-04 15:12 | 24.89639 | -76.55636 | 34069 ft | 417 kts | 294° |
| 2026-05-04 15:13 | 24.92443 | -76.61216 | 34071 ft | 416 kts | 294° |
| 2026-05-04 15:13 | 24.95246 | -76.66791 | 34072 ft | 416 kts | 294° |
| 2026-05-04 15:14 | 24.98038 | -76.72362 | 34069 ft | 415 kts | 293° |
| 2026-05-04 15:14 | 25.00826 | -76.77931 | 34076 ft | 414 kts | 293° |
| 2026-05-04 15:15 | 25.03609 | -76.83491 | 34069 ft | 414 kts | 293° |
| 2026-05-04 15:15 | 25.06369 | -76.89012 | 34065 ft | 414 kts | 293° |
| 2026-05-04 15:16 | 25.10547 | -76.97381 | 34067 ft | 413 kts | 293° |
| 2026-05-04 15:17 | 25.14689 | -77.05708 | 34068 ft | 412 kts | 293° |
| 2026-05-04 15:17 | 25.18805 | -77.13993 | 34070 ft | 412 kts | 293° |
| 2026-05-04 15:18 | 25.21573 | -77.19575 | 34069 ft | 412 kts | 293° |
| 2026-05-04 15:19 | 25.25684 | -77.27853 | 34074 ft | 411 kts | 293° |
| 2026-05-04 15:19 | 25.29649 | -77.36236 | 34074 ft | 406 kts | 285° |
| 2026-05-04 15:20 | 25.31550 | -77.42107 | 34075 ft | 406 kts | 285° |
| 2026-05-04 15:20 | 25.33457 | -77.47972 | 34071 ft | 406 kts | 285° |
| 2026-05-04 15:21 | 25.35366 | -77.53837 | 34070 ft | 405 kts | 285° |
| 2026-05-04 15:22 | 25.38214 | -77.62635 | 34069 ft | 405 kts | 285° |
| 2026-05-04 15:22 | 25.41066 | -77.71424 | 34071 ft | 404 kts | 286° |
| 2026-05-04 15:23 | 25.42958 | -77.77282 | 34069 ft | 404 kts | 285° |
| 2026-05-04 15:23 | 25.44591 | -77.83211 | 34074 ft | 402 kts | 282° |
| 2026-05-04 15:24 | 25.47439 | -77.95168 | 34068 ft | 402 kts | 282° |
| 2026-05-04 15:25 | 25.48924 | -78.01134 | 34068 ft | 402 kts | 282° |
| 2026-05-04 15:26 | 25.51168 | -78.10071 | 34066 ft | 402 kts | 282° |
| 2026-05-04 15:26 | 25.53394 | -78.19013 | 34065 ft | 401 kts | 282° |
| 2026-05-04 15:27 | 25.55607 | -78.27945 | 34069 ft | 401 kts | 283° |
| 2026-05-04 15:28 | 25.57815 | -78.36871 | 34061 ft | 400 kts | 283° |
| 2026-05-04 15:29 | 25.60014 | -78.45786 | 34062 ft | 400 kts | 283° |
| 2026-05-04 15:30 | 25.65115 | -78.66554 | 34064 ft | 399 kts | 283° |
| 2026-05-04 15:31 | 25.67280 | -78.75448 | 34067 ft | 398 kts | 283° |
| 2026-05-04 15:32 | 25.70883 | -78.90221 | 34069 ft | 398 kts | 283° |
| 2026-05-04 15:34 | 25.75169 | -79.04825 | 34072 ft | 400 kts | 289° |
| 2026-05-04 15:34 | 25.78242 | -79.13421 | 34075 ft | 399 kts | 288° |
| 2026-05-04 15:35 | 25.81244 | -79.22029 | 34076 ft | 398 kts | 288° |
| 2026-05-04 15:36 | 25.84230 | -79.30636 | 34078 ft | 398 kts | 288° |
| 2026-05-04 15:36 | 25.86223 | -79.36370 | 34073 ft | 398 kts | 288° |
| 2026-05-04 15:37 | 25.88212 | -79.42099 | 34072 ft | 398 kts | 288° |
| 2026-05-04 15:37 | 25.90198 | -79.47832 | 34072 ft | 398 kts | 288° |
| 2026-05-04 15:38 | 25.92184 | -79.53563 | 34073 ft | 398 kts | 288° |
| 2026-05-04 15:38 | 25.94166 | -79.59298 | 34074 ft | 398 kts | 288° |
| 2026-05-04 15:39 | 25.96143 | -79.65041 | 34076 ft | 398 kts | 288° |
| 2026-05-04 15:40 | 25.99103 | -79.73655 | 34080 ft | 398 kts | 288° |
| 2026-05-04 15:40 | 26.01078 | -79.79398 | 33974 ft | 398 kts | 288° |
| 2026-05-04 15:40 | 26.02064 | -79.82271 | 33705 ft | 398 kts | 288° |
| 2026-05-04 15:41 | 26.03037 | -79.85106 | 33445 ft | 398 kts | 288° |
| 2026-05-04 15:41 | 26.04038 | -79.88018 | 33180 ft | 398 kts | 288° |
| 2026-05-04 15:41 | 26.05013 | -79.90858 | 32939 ft | 399 kts | 288° |
| 2026-05-04 15:41 | 26.05999 | -79.93740 | 32696 ft | 399 kts | 288° |
| 2026-05-04 15:42 | 26.06986 | -79.96629 | 32438 ft | 400 kts | 288° |
| 2026-05-04 15:42 | 26.07972 | -79.99521 | 32188 ft | 401 kts | 288° |
| 2026-05-04 15:42 | 26.08960 | -80.02422 | 31947 ft | 401 kts | 288° |
| 2026-05-04 15:42 | 26.09950 | -80.05323 | 31705 ft | 402 kts | 289° |
| 2026-05-04 15:43 | 26.10943 | -80.08236 | 31464 ft | 402 kts | 288° |
| 2026-05-04 15:43 | 26.11932 | -80.11149 | 31224 ft | 403 kts | 289° |
| 2026-05-04 15:43 | 26.12923 | -80.14064 | 30971 ft | 404 kts | 289° |
| 2026-05-04 15:43 | 26.13706 | -80.15997 | 30661 ft | 406 kts | 296° |
| 2026-05-04 15:44 | 26.15281 | -80.18625 | 30232 ft | 412 kts | 306° |
| 2026-05-04 15:44 | 26.17282 | -80.20870 | 29752 ft | 419 kts | 315° |
| 2026-05-04 15:44 | 26.19721 | -80.22705 | 29431 ft | 429 kts | 326° |
| 2026-05-04 15:44 | 26.22429 | -80.24158 | 29165 ft | 434 kts | 328° |
| 2026-05-04 15:45 | 26.25168 | -80.25586 | 28908 ft | 435 kts | 328° |
| 2026-05-04 15:45 | 26.27914 | -80.27010 | 28645 ft | 436 kts | 328° |
| 2026-05-04 15:45 | 26.30661 | -80.28432 | 28394 ft | 435 kts | 328° |
| 2026-05-04 15:45 | 26.33393 | -80.29850 | 28260 ft | 434 kts | 328° |
| 2026-05-04 15:46 | 26.36132 | -80.31279 | 28137 ft | 433 kts | 328° |
| 2026-05-04 15:46 | 26.38859 | -80.32708 | 28004 ft | 433 kts | 328° |
| 2026-05-04 15:46 | 26.41581 | -80.34136 | 27893 ft | 432 kts | 328° |
| 2026-05-04 15:46 | 26.44299 | -80.35561 | 27760 ft | 431 kts | 328° |
| 2026-05-04 15:47 | 26.47015 | -80.36979 | 27636 ft | 431 kts | 328° |
| 2026-05-04 15:47 | 26.49732 | -80.38392 | 27486 ft | 430 kts | 328° |
| 2026-05-04 15:47 | 26.52441 | -80.39805 | 27283 ft | 429 kts | 328° |
| 2026-05-04 15:47 | 26.55142 | -80.41220 | 27085 ft | 428 kts | 328° |
| 2026-05-04 15:48 | 26.57833 | -80.42633 | 26883 ft | 427 kts | 328° |
| 2026-05-04 15:48 | 26.60519 | -80.44046 | 26673 ft | 426 kts | 328° |
| 2026-05-04 15:48 | 26.65972 | -80.46672 | 26279 ft | 428 kts | 333° |
| 2026-05-04 15:49 | 26.68764 | -80.47820 | 26082 ft | 428 kts | 334° |
| 2026-05-04 15:49 | 26.71575 | -80.48916 | 25880 ft | 427 kts | 334° |
| 2026-05-04 15:49 | 26.74382 | -80.50000 | 25671 ft | 426 kts | 334° |
| 2026-05-04 15:49 | 26.77177 | -80.51099 | 25493 ft | 425 kts | 334° |
| 2026-05-04 15:50 | 26.79957 | -80.52219 | 25286 ft | 424 kts | 334° |
| 2026-05-04 15:50 | 26.82722 | -80.53358 | 25089 ft | 423 kts | 333° |
| 2026-05-04 15:50 | 26.85473 | -80.54508 | 24897 ft | 422 kts | 333° |
| 2026-05-04 15:50 | 26.88219 | -80.55662 | 24695 ft | 421 kts | 333° |
| 2026-05-04 15:51 | 26.90957 | -80.56808 | 24499 ft | 420 kts | 333° |
| 2026-05-04 15:51 | 26.93694 | -80.57947 | 24305 ft | 419 kts | 334° |
| 2026-05-04 15:51 | 26.96423 | -80.59079 | 24106 ft | 418 kts | 334° |
| 2026-05-04 15:51 | 26.99148 | -80.60206 | 23913 ft | 417 kts | 334° |
| 2026-05-04 15:52 | 27.01869 | -80.61333 | 23717 ft | 416 kts | 334° |
| 2026-05-04 15:52 | 27.04578 | -80.62456 | 23508 ft | 415 kts | 334° |
| 2026-05-04 15:52 | 27.07282 | -80.63575 | 23314 ft | 414 kts | 334° |
| 2026-05-04 15:52 | 27.09977 | -80.64691 | 23119 ft | 412 kts | 334° |
| 2026-05-04 15:53 | 27.12627 | -80.65794 | 22920 ft | 411 kts | 334° |
| 2026-05-04 15:53 | 27.15303 | -80.66915 | 22711 ft | 410 kts | 334° |
| 2026-05-04 15:53 | 27.17969 | -80.68040 | 22513 ft | 409 kts | 334° |
| 2026-05-04 15:53 | 27.20626 | -80.69163 | 22302 ft | 408 kts | 334° |
| 2026-05-04 15:54 | 27.23281 | -80.70281 | 22095 ft | 407 kts | 334° |
| 2026-05-04 15:54 | 27.25929 | -80.71396 | 21896 ft | 406 kts | 334° |
| 2026-05-04 15:54 | 27.28568 | -80.72505 | 21684 ft | 405 kts | 334° |
| 2026-05-04 15:54 | 27.31204 | -80.73609 | 21484 ft | 403 kts | 334° |
| 2026-05-04 15:55 | 27.33802 | -80.74693 | 21298 ft | 392 kts | 334° |
| 2026-05-04 15:55 | 27.36320 | -80.75742 | 21150 ft | 380 kts | 334° |
| 2026-05-04 15:55 | 27.38809 | -80.76793 | 20564 ft | 387 kts | 334° |
| 2026-05-04 15:55 | 27.41347 | -80.77883 | 20117 ft | 390 kts | 334° |
| 2026-05-04 15:56 | 27.43870 | -80.78975 | 19665 ft | 387 kts | 334° |
| 2026-05-04 15:56 | 27.46358 | -80.80056 | 19226 ft | 378 kts | 334° |
| 2026-05-04 15:56 | 27.48777 | -80.81105 | 18791 ft | 367 kts | 334° |
| 2026-05-04 15:56 | 27.51135 | -80.82132 | 18359 ft | 361 kts | 334° |
| 2026-05-04 15:57 | 27.53465 | -80.83149 | 17864 ft | 358 kts | 334° |
| 2026-05-04 15:57 | 27.55778 | -80.84160 | 17384 ft | 356 kts | 334° |
| 2026-05-04 15:57 | 27.58066 | -80.85213 | 16898 ft | 353 kts | 332° |
| 2026-05-04 15:57 | 27.60298 | -80.86343 | 16436 ft | 350 kts | 331° |
| 2026-05-04 15:58 | 27.62487 | -80.87513 | 15974 ft | 347 kts | 330° |
| 2026-05-04 15:58 | 27.64656 | -80.88692 | 15512 ft | 345 kts | 331° |
| 2026-05-04 15:58 | 27.66815 | -80.89858 | 15073 ft | 343 kts | 331° |
| 2026-05-04 15:58 | 27.68965 | -80.91007 | 14609 ft | 341 kts | 332° |
| 2026-05-04 15:59 | 27.71108 | -80.92140 | 14182 ft | 339 kts | 332° |
| 2026-05-04 15:59 | 27.73241 | -80.93263 | 13732 ft | 337 kts | 332° |
| 2026-05-04 15:59 | 27.75354 | -80.94366 | 13234 ft | 330 kts | 332° |
| 2026-05-04 15:59 | 27.77411 | -80.95441 | 12751 ft | 321 kts | 332° |
| 2026-05-04 16:00 | 27.79415 | -80.96492 | 12274 ft | 314 kts | 332° |
| 2026-05-04 16:00 | 27.81383 | -80.97528 | 11927 ft | 310 kts | 332° |
| 2026-05-04 16:00 | 27.83326 | -80.98554 | 11577 ft | 306 kts | 332° |
| 2026-05-04 16:00 | 27.85214 | -80.99546 | 11249 ft | 300 kts | 332° |
| 2026-05-04 16:01 | 27.87093 | -81.00535 | 10907 ft | 296 kts | 332° |
| 2026-05-04 16:01 | 27.88951 | -81.01516 | 10578 ft | 294 kts | 332° |
| 2026-05-04 16:01 | 27.90798 | -81.02492 | 10246 ft | 292 kts | 332° |
| 2026-05-04 16:01 | 27.92632 | -81.03456 | 9919 ft | 290 kts | 332° |
| 2026-05-04 16:02 | 27.94473 | -81.04380 | 9550 ft | 289 kts | 334° |
| 2026-05-04 16:02 | 27.96341 | -81.05204 | 9199 ft | 288 kts | 336° |
| 2026-05-04 16:02 | 28.00109 | -81.06748 | 8495 ft | 286 kts | 337° |
| 2026-05-04 16:03 | 28.01939 | -81.07573 | 8200 ft | 281 kts | 328° |
| 2026-05-04 16:03 | 28.03578 | -81.08748 | 7912 ft | 278 kts | 323° |
| 2026-05-04 16:03 | 28.05159 | -81.10002 | 7604 ft | 277 kts | 323° |
| 2026-05-04 16:03 | 28.06722 | -81.11275 | 7288 ft | 277 kts | 323° |
| 2026-05-04 16:04 | 28.08271 | -81.12559 | 6975 ft | 274 kts | 323° |
| 2026-05-04 16:04 | 28.11204 | -81.15058 | 6473 ft | 254 kts | 323° |
| 2026-05-04 16:04 | 28.12596 | -81.16271 | 6224 ft | 251 kts | 323° |
| 2026-05-04 16:05 | 28.13971 | -81.17474 | 5971 ft | 248 kts | 323° |
| 2026-05-04 16:05 | 28.15325 | -81.18665 | 5724 ft | 245 kts | 323° |
| 2026-05-04 16:05 | 28.17981 | -81.21018 | 5232 ft | 241 kts | 323° |
| 2026-05-04 16:06 | 28.19289 | -81.22185 | 5006 ft | 236 kts | 323° |
| 2026-05-04 16:06 | 28.22596 | -81.25183 | 4324 ft | 223 kts | 323° |
| 2026-05-04 16:07 | 28.24190 | -81.26668 | 4006 ft | 221 kts | 323° |
| 2026-05-04 16:07 | 28.27680 | -81.30018 | 3293 ft | 211 kts | 323° |
| 2026-05-04 16:08 | 28.28746 | -81.31057 | 3038 ft | 193 kts | 323° |
| 2026-05-04 16:08 | 28.32056 | -81.32573 | 2250 ft | 168 kts | 4° |
| 2026-05-04 16:09 | 28.34373 | -81.32587 | 1726 ft | 164 kts | 2° |
| 2026-05-04 16:09 | 28.36537 | -81.32611 | 1258 ft | 147 kts | 4° |
| 2026-05-04 16:10 | 28.38565 | -81.32632 | 791 ft | 148 kts | 5° |
| 2026-05-04 16:11 | 28.41611 | -81.32666 | 136 ft | 143 kts | 4° |
| 2026-05-04 16:11 | 28.42530 | -81.32674 | 99 ft | 113 kts | 359° |
| 2026-05-04 16:12 | 28.43693 | -81.32630 | 100 ft | 20 kts | 40° |
| 2026-05-04 16:12 | 28.43909 | -81.32236 | 101 ft | 19 kts | 59° |
| 2026-05-04 16:13 | 28.43959 | -81.32011 | 101 ft | 14 kts | 153° |
| 2026-05-04 16:13 | 28.43740 | -81.32003 | 100 ft | 17 kts | 179° |
| 2026-05-04 16:14 | 28.43486 | -81.32000 | 100 ft | 19 kts | 179° |
| 2026-05-04 16:14 | 28.43199 | -81.31997 | 99 ft | 22 kts | 179° |
| 2026-05-04 16:15 | 28.42725 | -81.31991 | 102 ft | 22 kts | 179° |
| 2026-05-04 16:16 | 28.42410 | -81.31989 | 103 ft | 23 kts | 180° |
| 2026-05-04 16:16 | 28.41953 | -81.31984 | 101 ft | 19 kts | 179° |
| 2026-05-04 16:17 | 28.41726 | -81.31981 | 99 ft | 14 kts | 179° |
| 2026-05-04 16:18 | 28.41512 | -81.31912 | 99 ft | 9 kts | 169° |
| 2026-05-04 16:18 | 28.41443 | -81.31910 | 99 ft | 10 kts | 180° |
| 2026-05-04 16:19 | 28.41194 | -81.31910 | 100 ft | 15 kts | 180° |
| 2026-05-04 16:19 | 28.41004 | -81.31892 | 97 ft | 13 kts | 133° |
| 2026-05-04 16:20 | 28.40994 | -81.31657 | 94 ft | 9 kts | 90° |
| 2026-05-04 16:20 | 28.41032 | -81.31566 | 95 ft | 7 kts | 26° |
| 2026-05-04 16:21 | 28.41096 | -81.31532 | 96 ft | 0 kts | 25° |